createdAt,value
2019-02-07T00:00:58.352Z,-1.80
2019-02-07T00:02:32.715Z,-1.70
2019-02-07T00:04:07.086Z,-1.80
2019-02-07T00:05:41.449Z,-1.80
2019-02-07T00:07:15.851Z,-1.80
2019-02-07T00:08:50.208Z,-1.80
2019-02-07T00:10:24.574Z,-1.80
2019-02-07T00:11:59.337Z,-1.70
2019-02-07T00:13:33.729Z,-1.80
2019-02-07T00:15:10.242Z,-1.80
2019-02-07T00:16:44.679Z,-1.80
2019-02-07T00:18:19.045Z,-1.80
2019-02-07T00:19:53.425Z,-1.80
2019-02-07T00:21:27.880Z,-1.80
2019-02-07T00:23:02.280Z,-1.80
2019-02-07T00:24:42.998Z,-1.80
2019-02-07T00:26:12.741Z,-1.80
2019-02-07T00:27:47.109Z,-1.80
2019-02-07T00:29:21.503Z,-1.80
2019-02-07T00:30:55.817Z,-1.80
2019-02-07T00:32:30.184Z,-1.90
2019-02-07T00:34:05.096Z,-1.90
2019-02-07T00:35:39.476Z,-1.90
2019-02-07T00:37:15.456Z,-1.90
2019-02-07T00:38:49.936Z,-1.80
2019-02-07T00:40:25.829Z,-1.90
2019-02-07T00:42:00.217Z,-1.90
2019-02-07T00:43:34.584Z,-1.90
2019-02-07T00:45:11.521Z,-1.90
2019-02-07T00:46:45.884Z,-1.90
2019-02-07T00:48:20.258Z,-1.90
2019-02-07T00:49:54.928Z,-1.90
2019-02-07T00:51:29.300Z,-1.90
2019-02-07T00:53:03.685Z,-1.90
2019-02-07T00:54:38.056Z,-1.90
2019-02-07T00:56:12.532Z,-1.90
2019-02-07T00:57:47.077Z,-1.80
2019-02-07T00:59:21.451Z,-1.90
2019-02-07T01:00:55.819Z,-1.90
2019-02-07T01:02:30.503Z,-1.90
2019-02-07T01:04:04.897Z,-1.90
2019-02-07T01:05:39.365Z,-2.00
2019-02-07T01:07:13.736Z,-1.90
2019-02-07T01:08:49.626Z,-2.00
2019-02-07T01:10:26.083Z,-1.90
2019-02-07T01:12:00.480Z,-1.90
2019-02-07T01:13:34.863Z,-1.90
2019-02-07T01:15:11.369Z,-1.90
2019-02-07T01:16:45.731Z,-1.90
2019-02-07T01:18:20.100Z,-1.90
2019-02-07T01:19:54.464Z,-1.90
2019-02-07T01:21:30.453Z,-1.90
2019-02-07T01:23:04.916Z,-1.90
2019-02-07T01:24:39.284Z,-1.90
2019-02-07T01:26:15.227Z,-2.00
2019-02-07T01:27:49.884Z,-2.00
2019-02-07T01:29:24.250Z,-1.90
2019-02-07T01:30:58.641Z,-2.00
2019-02-07T01:32:33.006Z,-2.00
2019-02-07T01:34:07.364Z,-2.00
2019-02-07T01:35:41.730Z,-2.00
2019-02-07T01:37:16.174Z,-1.90
2019-02-07T01:38:50.548Z,-1.90
2019-02-07T01:40:25.225Z,-1.90
2019-02-07T01:41:59.601Z,-1.90
2019-02-07T01:43:34.133Z,-2.00
2019-02-07T01:45:14.453Z,-1.90
2019-02-07T01:46:48.865Z,-1.90
2019-02-07T01:48:23.236Z,-1.80
2019-02-07T01:49:57.674Z,-1.90
2019-02-07T01:51:32.108Z,-1.90
2019-02-07T01:53:06.683Z,-1.90
2019-02-07T01:54:41.076Z,-1.90
2019-02-07T01:56:15.462Z,-1.90
2019-02-07T01:57:49.828Z,-1.90
2019-02-07T01:59:24.192Z,-1.80
2019-02-07T02:00:58.589Z,-1.90
2019-02-07T02:04:13.800Z,-1.90
2019-02-07T02:05:48.117Z,-1.80
2019-02-07T02:07:22.512Z,-1.80
2019-02-07T02:08:56.882Z,-1.90
2019-02-07T02:10:31.242Z,-1.90
2019-02-07T02:12:05.612Z,-1.80
2019-02-07T02:13:40.127Z,-1.80
2019-02-07T02:15:24.002Z,-1.80
2019-02-07T02:16:52.329Z,-1.80
2019-02-07T02:18:26.683Z,-1.80
2019-02-07T02:20:01.052Z,-1.80
2019-02-07T02:21:35.428Z,-1.80
2019-02-07T02:23:09.802Z,-1.70
2019-02-07T02:24:45.273Z,-1.60
2019-02-07T02:26:19.817Z,-1.60
2019-02-07T02:27:54.292Z,-1.50
2019-02-07T02:29:28.651Z,-1.50
2019-02-07T02:31:04.627Z,-1.50
2019-02-07T02:32:38.993Z,-1.60
2019-02-07T02:34:13.462Z,-1.50
2019-02-07T02:35:47.839Z,-1.50
2019-02-07T02:37:22.204Z,-1.50
2019-02-07T02:38:56.667Z,-1.50
2019-02-07T02:40:31.062Z,-1.50
2019-02-07T02:42:05.437Z,-1.60
2019-02-07T02:43:40.179Z,-1.50
2019-02-07T02:45:19.627Z,-1.50
2019-02-07T02:46:53.986Z,-1.50
2019-02-07T02:48:28.431Z,-1.60
2019-02-07T02:50:04.029Z,-1.60
2019-02-07T02:51:38.768Z,-1.60
2019-02-07T02:53:13.225Z,-1.60
2019-02-07T02:54:48.761Z,-1.70
2019-02-07T02:56:23.205Z,-1.60
2019-02-07T02:57:57.570Z,-1.60
2019-02-07T02:59:31.973Z,-1.70
2019-02-07T03:01:23.219Z,-1.70
2019-02-07T03:03:01.971Z,-1.70
2019-02-07T03:04:40.658Z,-1.60
2019-02-07T03:06:22.601Z,-1.60
2019-02-07T03:08:15.163Z,-1.70
2019-02-07T03:10:07.399Z,-1.70
2019-02-07T03:11:43.408Z,-1.70
2019-02-07T03:13:36.070Z,-1.70
2019-02-07T03:15:12.335Z,-1.70
2019-02-07T03:16:58.481Z,-1.70
2019-02-07T03:18:34.501Z,-1.80
2019-02-07T03:20:16.671Z,-1.80
2019-02-07T03:22:08.643Z,-1.80
2019-02-07T03:23:47.836Z,-1.80
2019-02-07T03:25:41.953Z,-1.80
2019-02-07T03:27:23.969Z,-1.80
2019-02-07T03:29:08.813Z,-1.80
2019-02-07T03:30:57.125Z,-1.80
2019-02-07T03:32:33.135Z,-1.80
2019-02-07T03:34:09.444Z,-1.80
2019-02-07T03:35:51.291Z,-1.80
2019-02-07T03:37:30.003Z,-1.80
2019-02-07T03:39:11.500Z,-1.80
2019-02-07T03:40:50.488Z,-1.80
2019-02-07T03:42:28.944Z,-1.70
2019-02-07T03:44:10.782Z,-1.80
2019-02-07T03:46:03.361Z,-1.80
2019-02-07T03:47:57.442Z,-1.70
2019-02-07T03:49:33.449Z,-1.70
2019-02-07T03:51:14.929Z,-1.70
2019-02-07T03:52:50.957Z,-1.60
2019-02-07T03:54:29.746Z,-1.60
2019-02-07T03:56:05.821Z,-1.60
2019-02-07T03:57:44.829Z,-1.60
2019-02-07T03:59:29.569Z,-1.60
2019-02-07T04:01:20.888Z,-1.60
2019-02-07T04:02:57.004Z,-1.70
2019-02-07T04:06:33.618Z,-1.80
2019-02-07T04:08:15.589Z,-1.80
2019-02-07T04:09:51.621Z,-1.80
2019-02-07T04:11:42.661Z,-1.70
2019-02-07T04:13:21.717Z,-1.80
2019-02-07T04:15:00.701Z,-1.80
2019-02-07T04:16:37.154Z,-1.80
2019-02-07T04:18:31.305Z,-1.80
2019-02-07T04:20:15.567Z,-1.80
2019-02-07T04:21:54.599Z,-1.80
2019-02-07T04:23:47.370Z,-1.80
2019-02-07T04:25:26.102Z,-1.90
2019-02-07T04:27:14.366Z,-1.90
2019-02-07T04:28:53.297Z,-1.90
2019-02-07T04:30:47.088Z,-2.00
2019-02-07T04:32:41.562Z,-2.00
2019-02-07T04:34:26.541Z,-2.00
2019-02-07T04:36:02.580Z,-2.00
2019-02-07T04:37:56.501Z,-2.00
2019-02-07T04:39:35.621Z,-1.90
2019-02-07T04:41:23.901Z,-1.90
2019-02-07T04:43:12.417Z,-1.90
2019-02-07T04:44:48.449Z,-1.90
2019-02-07T04:46:41.101Z,-2.00
2019-02-07T04:48:32.133Z,-2.00
2019-02-07T04:50:16.467Z,-2.00
2019-02-07T04:51:55.142Z,-2.00
2019-02-07T04:53:37.117Z,-2.00
2019-02-07T04:55:29.441Z,-2.10
2019-02-07T04:57:20.220Z,-2.10
2019-02-07T04:59:12.417Z,-2.10
2019-02-07T05:00:51.143Z,-2.10
2019-02-07T05:02:27.215Z,-2.10
2019-02-07T05:04:19.814Z,-2.20
2019-02-07T05:06:13.695Z,-2.10
2019-02-07T05:08:00.262Z,-2.20
2019-02-07T05:09:36.742Z,-2.10
2019-02-07T05:11:27.885Z,-2.10
2019-02-07T05:13:06.842Z,-2.20
2019-02-07T05:14:48.917Z,-2.10
2019-02-07T05:16:24.953Z,-2.10
2019-02-07T05:18:00.962Z,-2.10
2019-02-07T05:19:54.901Z,-2.10
2019-02-07T05:21:30.996Z,-2.10
2019-02-07T05:23:12.883Z,-2.10
2019-02-07T05:24:51.796Z,-2.20
2019-02-07T05:26:33.337Z,-2.20
2019-02-07T05:28:12.125Z,-2.20
2019-02-07T05:30:04.425Z,-2.20
2019-02-07T05:31:46.478Z,-2.10
2019-02-07T05:33:31.689Z,-2.20
2019-02-07T05:35:11.093Z,-2.20
2019-02-07T05:36:53.380Z,-2.20
2019-02-07T05:38:45.536Z,-2.10
2019-02-07T05:40:21.547Z,-2.20
2019-02-07T05:42:00.540Z,-2.20
2019-02-07T05:43:39.529Z,-2.10
2019-02-07T05:45:21.536Z,-2.20
2019-02-07T05:46:57.525Z,-2.10
2019-02-07T05:48:45.952Z,-2.10
2019-02-07T05:50:24.801Z,-2.10
2019-02-07T05:52:06.523Z,-2.10
2019-02-07T05:53:45.432Z,-2.10
2019-02-07T05:55:30.395Z,-2.00
2019-02-07T05:57:09.108Z,-2.10
2019-02-07T05:59:03.245Z,-2.10
2019-02-07T06:00:54.666Z,-2.10
2019-02-07T06:02:30.787Z,-2.00
2019-02-07T06:04:12.897Z,-2.10
2019-02-07T06:05:48.901Z,-2.10
2019-02-07T06:07:27.898Z,-2.00
2019-02-07T06:09:20.270Z,-1.90
2019-02-07T06:10:59.126Z,-1.80
2019-02-07T06:12:36.644Z,-1.70
2019-02-07T06:14:12.693Z,-1.60
2019-02-07T06:15:56.962Z,-1.40
2019-02-07T06:17:34.958Z,-1.20
2019-02-07T06:19:20.042Z,-1.00
2019-02-07T06:21:05.084Z,-0.80
2019-02-07T06:22:53.028Z,-0.60
2019-02-07T06:24:36.378Z,-0.40
2019-02-07T06:26:14.795Z,-0.10
2019-02-07T06:27:57.032Z,0.00
2019-02-07T06:29:33.074Z,0.20
2019-02-07T06:31:12.025Z,0.40
2019-02-07T06:33:04.309Z,0.50
2019-02-07T06:34:49.521Z,0.80
2019-02-07T06:36:42.042Z,1.10
2019-02-07T06:38:30.337Z,1.20
2019-02-07T06:40:26.549Z,1.30
2019-02-07T06:42:02.553Z,1.70
2019-02-07T06:43:43.387Z,1.60
2019-02-07T06:45:35.906Z,1.80
2019-02-07T06:47:29.773Z,1.70
2019-02-07T06:49:25.041Z,1.90
2019-02-07T06:51:09.965Z,2.00
2019-02-07T06:52:46.268Z,1.90
2019-02-07T06:54:31.388Z,1.80
2019-02-07T06:56:07.395Z,1.80
2019-02-07T06:57:46.358Z,1.80
2019-02-07T06:59:28.209Z,1.80
2019-02-07T07:01:04.218Z,1.80
2019-02-07T07:02:46.284Z,1.90
2019-02-07T07:11:49.600Z,12.30
2019-02-07T07:13:27.019Z,14.00
2019-02-07T07:15:10.091Z,15.00
2019-02-07T07:16:49.897Z,16.80
2019-02-07T07:18:43.339Z,18.00
2019-02-07T07:20:39.016Z,18.50
2019-02-07T07:22:25.457Z,19.00
2019-02-07T07:27:08.782Z,17.40
2019-02-07T07:29:02.290Z,13.30
2019-02-07T07:30:54.999Z,8.30
2019-02-07T07:32:32.422Z,7.90
2019-02-07T07:34:12.501Z,7.50
2019-02-07T07:35:51.113Z,6.50
2019-02-07T07:37:40.409Z,5.50
2019-02-07T07:40:27.785Z,3.10
2019-02-07T07:42:06.255Z,2.90
2019-02-07T07:43:59.707Z,2.70
2019-02-07T07:45:41.064Z,2.40
2019-02-07T07:47:19.269Z,1.70
2019-02-07T07:49:12.338Z,1.70
2019-02-07T07:50:50.426Z,1.40
2019-02-07T07:52:43.925Z,1.40
2019-02-07T07:54:29.837Z,1.30
2019-02-07T07:56:11.481Z,1.30
2019-02-07T07:58:04.720Z,1.40
2019-02-07T07:59:50.946Z,1.20
2019-02-07T08:01:44.153Z,1.20
2019-02-07T08:03:21.315Z,1.20
2019-02-07T08:05:07.323Z,1.30
2019-02-07T08:06:54.644Z,1.40
2019-02-07T08:08:50.243Z,1.60
2019-02-07T08:10:27.401Z,1.70
2019-02-07T08:12:06.615Z,1.60
2019-02-07T08:13:52.880Z,1.70
2019-02-07T08:15:38.905Z,1.70
2019-02-07T08:17:18.562Z,1.50
2019-02-07T08:18:58.337Z,1.40
2019-02-07T08:20:38.321Z,1.40
2019-02-07T08:22:16.791Z,1.30
2019-02-07T08:23:56.856Z,1.40
2019-02-07T08:25:43.326Z,1.30
2019-02-07T08:27:36.771Z,1.40
2019-02-07T08:29:13.914Z,1.50
2019-02-07T08:30:52.198Z,1.60
2019-02-07T08:32:45.647Z,1.80
2019-02-07T08:34:25.788Z,1.70
2019-02-07T08:36:18.038Z,1.70
2019-02-07T08:38:04.395Z,1.60
2019-02-07T08:39:57.764Z,1.90
2019-02-07T08:41:35.989Z,2.10
2019-02-07T08:43:31.435Z,2.20
2019-02-07T08:45:28.567Z,2.10
2019-02-07T08:47:05.698Z,2.10
2019-02-07T08:48:44.347Z,1.90
2019-02-07T08:50:25.608Z,2.00
2019-02-07T08:52:07.326Z,2.30
2019-02-07T08:53:47.477Z,2.60
2019-02-07T08:55:24.598Z,2.80
2019-02-07T08:57:07.820Z,2.50
2019-02-07T08:58:43.067Z,2.90
2019-02-07T09:00:19.831Z,2.80
2019-02-07T09:01:59.797Z,2.80
2019-02-07T09:03:42.679Z,2.80
2019-02-07T09:05:31.944Z,2.70
2019-02-07T09:07:15.114Z,2.70
2019-02-07T09:08:55.205Z,2.90
2019-02-07T09:10:38.332Z,3.20
2019-02-07T09:12:15.514Z,3.20
2019-02-07T09:13:53.663Z,3.00
2019-02-07T09:15:32.813Z,3.10
2019-02-07T09:17:09.942Z,3.40
2019-02-07T09:18:47.931Z,3.10
2019-02-07T09:20:25.058Z,2.80
2019-02-07T09:22:23.699Z,2.60
2019-02-07T09:23:57.763Z,2.90
2019-02-07T09:25:34.905Z,3.30
2019-02-07T09:27:16.401Z,3.30
2019-02-07T09:28:56.336Z,3.10
2019-02-07T09:30:40.582Z,3.60
2019-02-07T09:32:19.209Z,3.10
2019-02-07T09:33:59.086Z,3.00
2019-02-07T09:35:44.025Z,3.00
2019-02-07T09:37:22.268Z,3.50
2019-02-07T09:39:08.282Z,3.60
2019-02-07T09:40:48.493Z,3.50
2019-02-07T09:42:28.313Z,3.50
2019-02-07T09:44:20.491Z,3.50
2019-02-07T09:46:14.024Z,3.30
2019-02-07T09:48:03.267Z,3.40
2019-02-07T09:49:42.959Z,3.30
2019-02-07T09:51:20.086Z,3.20
2019-02-07T09:53:23.756Z,3.20
2019-02-07T09:54:54.101Z,3.30
2019-02-07T09:56:35.606Z,3.40
2019-02-07T09:58:18.736Z,3.80
2019-02-07T10:00:11.173Z,4.10
2019-02-07T10:01:48.308Z,3.90
2019-02-07T10:03:31.720Z,4.00
2019-02-07T10:05:11.861Z,4.20
2019-02-07T10:06:47.151Z,4.40
2019-02-07T10:08:40.262Z,4.10
2019-02-07T10:10:33.499Z,4.40
2019-02-07T10:12:26.798Z,4.70
2019-02-07T10:14:16.071Z,4.60
2019-02-07T10:16:02.258Z,4.40
2019-02-07T10:17:48.337Z,4.30
2019-02-07T10:19:25.472Z,4.40
2019-02-07T10:21:11.760Z,4.60
2019-02-07T10:23:02.021Z,4.60
2019-02-07T10:24:45.994Z,4.70
2019-02-07T10:26:23.176Z,4.60
2019-02-07T10:28:16.423Z,4.40
2019-02-07T10:30:09.582Z,4.50
2019-02-07T10:31:44.835Z,4.70
2019-02-07T10:33:25.072Z,4.90
2019-02-07T10:35:03.017Z,5.10
2019-02-07T10:36:42.580Z,4.80
2019-02-07T10:38:28.918Z,4.80
2019-02-07T10:40:12.185Z,4.70
2019-02-07T10:42:01.549Z,4.80
2019-02-07T10:43:41.104Z,5.10
2019-02-07T10:45:19.097Z,4.70
2019-02-07T10:49:15.523Z,5.00
2019-02-07T10:51:07.807Z,4.90
2019-02-07T10:52:47.659Z,4.90
2019-02-07T10:54:36.748Z,4.80
2019-02-07T10:56:17.663Z,5.00
2019-02-07T10:58:06.613Z,5.00
2019-02-07T11:00:01.389Z,5.30
2019-02-07T11:01:38.526Z,5.30
2019-02-07T11:03:15.651Z,5.40
2019-02-07T11:04:55.522Z,5.20
2019-02-07T11:06:32.845Z,5.40
2019-02-07T11:08:11.038Z,5.40
2019-02-07T11:09:54.790Z,5.40
2019-02-07T11:11:31.917Z,5.50
2019-02-07T11:13:24.858Z,5.40
2019-02-07T11:15:00.297Z,5.60
2019-02-07T11:16:37.939Z,5.50
2019-02-07T11:18:15.077Z,5.50
2019-02-07T11:20:08.332Z,5.40
2019-02-07T11:23:45.759Z,5.60
2019-02-07T11:25:38.752Z,5.80
2019-02-07T11:27:29.653Z,6.00
2019-02-07T11:29:13.051Z,5.90
2019-02-07T11:30:50.181Z,5.80
2019-02-07T11:32:27.320Z,5.80
2019-02-07T11:34:10.503Z,5.60
2019-02-07T11:35:45.833Z,5.70
2019-02-07T11:37:21.116Z,5.70
2019-02-07T11:39:04.707Z,5.80
2019-02-07T11:40:54.518Z,5.70
2019-02-07T11:42:33.157Z,6.00
2019-02-07T11:44:12.104Z,6.00
2019-02-07T11:45:59.155Z,6.00
2019-02-07T11:47:37.999Z,5.80
2019-02-07T11:49:23.865Z,5.70
2019-02-07T11:51:01.269Z,5.90
2019-02-07T11:52:39.893Z,6.00
2019-02-07T11:54:27.369Z,6.10
2019-02-07T11:56:19.561Z,6.30
2019-02-07T11:57:57.897Z,6.50
2019-02-07T11:59:48.197Z,6.40
2019-02-07T12:01:35.541Z,6.30
2019-02-07T12:03:28.762Z,6.30
2019-02-07T12:05:06.753Z,6.20
2019-02-07T12:06:59.910Z,6.20
2019-02-07T12:08:47.490Z,6.30
2019-02-07T12:10:27.594Z,6.30
2019-02-07T12:12:06.215Z,6.40
2019-02-07T12:13:52.144Z,6.40
2019-02-07T12:15:27.419Z,6.50
2019-02-07T12:17:11.795Z,6.50
2019-02-07T12:18:54.938Z,6.50
2019-02-07T12:20:45.458Z,6.50
2019-02-07T12:22:38.674Z,6.40
2019-02-07T12:24:29.094Z,6.40
2019-02-07T12:26:12.359Z,6.40
2019-02-07T12:27:49.510Z,6.50
2019-02-07T12:29:38.670Z,6.80
2019-02-07T12:31:25.014Z,6.40
2019-02-07T12:33:20.442Z,6.60
2019-02-07T12:35:00.571Z,6.50
2019-02-07T12:36:37.777Z,6.60
2019-02-07T12:38:20.561Z,6.50
2019-02-07T12:40:04.890Z,6.70
2019-02-07T12:41:45.005Z,6.50
2019-02-07T12:43:30.711Z,6.50
2019-02-07T12:45:10.837Z,6.60
2019-02-07T12:46:46.115Z,6.70
2019-02-07T12:48:24.367Z,6.50
2019-02-07T12:50:14.671Z,6.50
2019-02-07T12:52:08.366Z,6.40
2019-02-07T12:53:51.481Z,6.40
2019-02-07T12:55:31.624Z,6.30
2019-02-07T12:57:17.616Z,6.20
2019-02-07T12:59:03.510Z,6.40
2019-02-07T13:00:46.607Z,6.30
2019-02-07T13:02:32.771Z,6.50
2019-02-07T13:04:24.986Z,6.60
2019-02-07T13:06:02.113Z,6.40
2019-02-07T13:07:46.758Z,6.20
2019-02-07T13:09:38.867Z,6.00
2019-02-07T13:11:22.266Z,5.90
2019-02-07T13:13:05.306Z,6.00
2019-02-07T13:14:54.880Z,6.10
2019-02-07T13:16:37.843Z,6.10
2019-02-07T13:18:23.826Z,6.20
2019-02-07T13:20:17.086Z,6.20
2019-02-07T13:22:00.004Z,6.20
2019-02-07T13:23:44.348Z,6.10
2019-02-07T13:25:33.768Z,6.20
2019-02-07T13:27:20.695Z,6.30
2019-02-07T13:29:14.185Z,6.10
2019-02-07T13:30:51.313Z,5.80
2019-02-07T13:32:46.854Z,5.80
2019-02-07T13:34:40.123Z,5.70
2019-02-07T13:36:23.085Z,6.00
2019-02-07T13:38:18.570Z,5.80
2019-02-07T13:39:56.199Z,5.90
2019-02-07T13:41:31.449Z,6.00
2019-02-07T13:43:14.200Z,5.90
2019-02-07T13:44:53.858Z,5.90
2019-02-07T13:46:39.696Z,5.90
2019-02-07T13:48:19.513Z,6.00
2019-02-07T13:49:56.635Z,6.10
2019-02-07T13:51:43.843Z,5.90
2019-02-07T13:53:37.541Z,6.00
2019-02-07T13:55:15.227Z,5.90
2019-02-07T13:56:50.501Z,5.80
2019-02-07T13:58:27.704Z,5.80
2019-02-07T14:00:07.591Z,5.80
2019-02-07T14:01:50.753Z,5.90
2019-02-07T14:03:43.878Z,5.90
2019-02-07T14:05:38.657Z,5.70
2019-02-07T14:07:28.092Z,5.70
2019-02-07T14:09:23.178Z,5.70
2019-02-07T14:11:16.911Z,5.70
2019-02-07T14:12:54.054Z,5.70
2019-02-07T14:14:32.021Z,5.60
2019-02-07T14:16:13.523Z,5.60
2019-02-07T14:17:50.883Z,5.60
2019-02-07T14:19:33.940Z,5.50
2019-02-07T14:21:27.399Z,5.60
2019-02-07T14:23:04.527Z,5.60
2019-02-07T14:24:48.065Z,5.70
2019-02-07T14:26:23.317Z,5.70
2019-02-07T14:27:58.593Z,5.70
2019-02-07T14:29:52.099Z,5.60
2019-02-07T14:31:34.985Z,5.60
2019-02-07T14:33:12.119Z,5.50
2019-02-07T14:34:50.340Z,5.50
2019-02-07T14:36:31.166Z,5.50
2019-02-07T14:38:08.364Z,5.50
2019-02-07T14:40:04.639Z,5.50
2019-02-07T14:41:59.864Z,5.40
2019-02-07T14:43:52.309Z,5.40
2019-02-07T14:45:32.193Z,5.40
2019-02-07T14:47:07.670Z,5.30
2019-02-07T14:48:45.228Z,5.30
2019-02-07T14:50:20.816Z,5.20
2019-02-07T14:51:56.330Z,5.10
2019-02-07T14:53:31.810Z,5.10
2019-02-07T14:55:11.442Z,5.00
2019-02-07T14:56:47.305Z,5.00
2019-02-07T14:58:22.837Z,5.00
2019-02-07T14:59:58.310Z,4.90
2019-02-07T15:01:33.829Z,5.00
2019-02-07T15:03:16.954Z,4.90
2019-02-07T15:04:52.695Z,4.90
2019-02-07T15:06:28.191Z,4.80
2019-02-07T15:08:05.182Z,4.80
2019-02-07T15:09:40.737Z,4.80
2019-02-07T15:11:16.215Z,4.80
2019-02-07T15:12:51.980Z,4.70
2019-02-07T15:14:27.566Z,4.70
2019-02-07T15:16:03.122Z,4.60
2019-02-07T15:17:38.605Z,4.70
2019-02-07T15:19:14.086Z,4.60
2019-02-07T15:20:49.601Z,4.60
2019-02-07T15:22:25.161Z,4.50
2019-02-07T15:24:00.805Z,4.50
2019-02-07T15:25:36.293Z,4.50
2019-02-07T15:27:11.858Z,4.50
2019-02-07T15:28:47.350Z,4.50
2019-02-07T15:30:23.106Z,4.40
2019-02-07T15:31:58.641Z,4.40
2019-02-07T15:33:34.506Z,4.40
2019-02-07T15:35:23.523Z,4.40
2019-02-07T15:36:59.111Z,4.30
2019-02-07T15:38:34.602Z,4.20
2019-02-07T15:40:14.763Z,4.20
2019-02-07T15:41:50.256Z,4.20
2019-02-07T15:43:25.764Z,4.20
2019-02-07T15:45:01.251Z,4.10
2019-02-07T15:46:36.740Z,4.00
2019-02-07T15:48:13.437Z,4.00
2019-02-07T15:49:48.915Z,4.00
2019-02-07T15:51:24.406Z,3.90
2019-02-07T15:53:03.004Z,4.00
2019-02-07T15:54:38.928Z,3.90
2019-02-07T15:56:14.415Z,3.90
2019-02-07T15:57:49.912Z,3.90
2019-02-07T15:59:33.177Z,3.80
2019-02-07T16:01:25.382Z,3.70
2019-02-07T16:03:03.267Z,3.70
2019-02-07T16:04:39.215Z,3.70
2019-02-07T16:06:14.706Z,3.70
2019-02-07T16:07:50.194Z,3.60
2019-02-07T16:09:25.702Z,3.60
2019-02-07T16:11:01.212Z,3.60
2019-02-07T16:12:36.716Z,3.60
2019-02-07T16:14:12.266Z,3.50
2019-02-07T16:15:47.748Z,3.60
2019-02-07T16:17:23.249Z,3.60
2019-02-07T16:18:58.738Z,3.50
2019-02-07T16:20:34.237Z,3.50
2019-02-07T16:22:09.807Z,3.50
2019-02-07T16:23:45.314Z,3.50
2019-02-07T16:25:21.105Z,3.40
2019-02-07T16:26:56.693Z,3.40
2019-02-07T16:28:32.187Z,3.30
2019-02-07T16:30:23.240Z,3.30
2019-02-07T16:31:58.751Z,3.20
2019-02-07T16:33:34.248Z,3.20
2019-02-07T16:35:09.920Z,3.20
2019-02-07T16:36:45.868Z,3.20
2019-02-07T16:38:21.433Z,3.10
2019-02-07T16:39:58.437Z,3.10
2019-02-07T16:41:33.982Z,3.10
2019-02-07T16:43:09.516Z,3.20
2019-02-07T16:44:45.017Z,3.10
2019-02-07T16:46:20.500Z,3.10
2019-02-07T16:47:56.054Z,3.00
2019-02-07T16:49:31.539Z,3.00
2019-02-07T16:51:07.028Z,3.10
2019-02-07T16:52:44.035Z,3.00
2019-02-07T16:54:19.722Z,2.90
2019-02-07T16:55:55.228Z,2.90
2019-02-07T16:57:30.979Z,2.80
2019-02-07T16:59:06.481Z,2.70
2019-02-07T17:00:41.961Z,2.70
2019-02-07T17:02:17.455Z,2.70
2019-02-07T17:03:52.966Z,2.70
2019-02-07T17:05:29.020Z,2.60
2019-02-07T17:07:04.589Z,2.60
2019-02-07T17:08:40.085Z,2.60
2019-02-07T17:10:23.052Z,2.60
2019-02-07T17:12:00.899Z,2.60
2019-02-07T17:13:35.819Z,2.50
2019-02-07T17:15:17.891Z,2.50
2019-02-07T17:16:53.387Z,2.40
2019-02-07T17:18:28.895Z,2.40
2019-02-07T17:20:14.756Z,2.40
2019-02-07T17:21:48.447Z,2.40
2019-02-07T17:23:25.448Z,2.40
2019-02-07T17:25:01.349Z,2.40
2019-02-07T17:26:37.936Z,2.30
2019-02-07T17:28:13.501Z,2.30
2019-02-07T17:29:48.985Z,2.40
2019-02-07T17:31:24.505Z,2.30
2019-02-07T17:33:00.056Z,2.30
2019-02-07T17:34:35.615Z,2.30
2019-02-07T17:36:11.104Z,2.30
2019-02-07T17:37:46.727Z,2.20
2019-02-07T17:39:22.255Z,2.20
2019-02-07T17:40:57.750Z,2.20
2019-02-07T17:42:33.242Z,2.20
2019-02-07T17:44:08.724Z,2.20
2019-02-07T17:45:44.592Z,2.20
2019-02-07T17:47:21.702Z,2.20
2019-02-07T17:48:57.192Z,2.20
2019-02-07T17:50:38.920Z,2.40
2019-02-07T17:52:14.413Z,2.10
2019-02-07T17:53:50.299Z,2.10
2019-02-07T17:55:26.740Z,2.10
2019-02-07T17:57:02.253Z,2.10
2019-02-07T17:58:39.435Z,2.10
2019-02-07T18:00:44.997Z,2.10
2019-02-07T18:02:20.489Z,2.00
2019-02-07T18:03:55.979Z,2.00
2019-02-07T18:05:31.464Z,1.90
2019-02-07T18:07:07.733Z,1.90
2019-02-07T18:08:43.498Z,1.80
2019-02-07T18:10:19.549Z,1.80
2019-02-07T18:11:55.048Z,1.80
2019-02-07T18:13:30.553Z,1.80
2019-02-07T18:15:08.675Z,1.80
2019-02-07T18:16:44.173Z,1.80
2019-02-07T18:18:19.728Z,1.80
2019-02-07T18:19:55.265Z,1.70
2019-02-07T18:21:34.191Z,1.70
2019-02-07T18:23:08.160Z,1.60
2019-02-07T18:24:43.653Z,1.60
2019-02-07T18:26:19.180Z,1.50
2019-02-07T18:27:54.735Z,1.50
2019-02-07T18:29:30.499Z,1.50
2019-02-07T18:31:06.063Z,1.40
2019-02-07T18:32:43.111Z,1.50
2019-02-07T18:34:18.606Z,1.40
2019-02-07T18:35:54.097Z,1.40
2019-02-07T18:37:29.676Z,1.40
2019-02-07T18:39:08.358Z,1.40
2019-02-07T18:40:43.850Z,1.40
2019-02-07T18:42:19.339Z,1.40
2019-02-07T18:43:54.821Z,1.40
2019-02-07T18:45:30.325Z,1.40
2019-02-07T18:47:05.827Z,1.40
2019-02-07T18:48:41.347Z,1.30
2019-02-07T18:50:32.468Z,1.30
2019-02-07T18:52:07.973Z,1.30
2019-02-07T18:53:43.839Z,1.20
2019-02-07T18:55:19.334Z,1.20
2019-02-07T18:56:56.353Z,1.20
2019-02-07T18:58:31.842Z,1.20
2019-02-07T19:00:20.643Z,1.20
2019-02-07T19:01:56.294Z,1.20
2019-02-07T19:03:33.274Z,1.20
2019-02-07T19:05:14.147Z,1.20
2019-02-07T19:06:49.637Z,1.20
2019-02-07T19:08:25.145Z,1.10
2019-02-07T19:10:00.681Z,1.10
2019-02-07T19:11:36.174Z,1.10
2019-02-07T19:13:11.844Z,1.10
2019-02-07T19:14:48.962Z,1.10
2019-02-07T19:16:26.350Z,1.10
2019-02-07T19:18:01.842Z,1.00
2019-02-07T19:19:38.856Z,1.00
2019-02-07T19:21:14.351Z,1.00
2019-02-07T19:22:49.910Z,0.90
2019-02-07T19:24:25.399Z,0.90
2019-02-07T19:26:00.888Z,0.90
2019-02-07T19:27:36.383Z,0.90
2019-02-07T19:29:11.904Z,0.80
2019-02-07T19:30:47.398Z,0.80
2019-02-07T19:32:24.391Z,0.80
2019-02-07T19:34:00.138Z,0.80
2019-02-07T19:35:35.772Z,0.80
2019-02-07T19:37:11.343Z,0.80
2019-02-07T19:38:46.833Z,0.80
2019-02-07T19:40:23.078Z,0.70
2019-02-07T19:41:58.656Z,0.70
2019-02-07T19:43:34.261Z,0.70
2019-02-07T19:45:14.583Z,0.60
2019-02-07T19:46:50.207Z,0.60
2019-02-07T19:48:25.801Z,0.70
2019-02-07T19:50:01.328Z,0.60
2019-02-07T19:51:36.943Z,0.60
2019-02-07T19:53:12.621Z,0.50
2019-02-07T19:54:48.234Z,0.50
2019-02-07T19:56:23.815Z,0.50
2019-02-07T19:57:59.462Z,0.50
2019-02-07T19:59:34.956Z,0.50
2019-02-07T20:01:12.250Z,0.50
2019-02-07T20:02:48.206Z,0.50
2019-02-07T20:04:24.083Z,0.50
2019-02-07T20:05:59.590Z,0.40
2019-02-07T20:07:35.087Z,0.50
2019-02-07T20:09:12.128Z,0.50
2019-02-07T20:10:47.589Z,0.40
2019-02-07T20:12:23.549Z,0.40
2019-02-07T20:13:59.365Z,0.40
2019-02-07T20:15:38.987Z,0.40
2019-02-07T20:17:14.615Z,0.40
2019-02-07T20:18:50.138Z,0.40
2019-02-07T20:20:25.679Z,0.30
2019-02-07T20:22:01.262Z,0.30
2019-02-07T20:23:39.648Z,0.30
2019-02-07T20:25:17.585Z,0.30
2019-02-07T20:26:53.312Z,0.30
2019-02-07T20:28:28.871Z,0.20
2019-02-07T20:30:08.004Z,0.20
2019-02-07T20:31:43.827Z,0.20
2019-02-07T20:33:19.330Z,0.20
2019-02-07T20:34:56.355Z,0.20
2019-02-07T20:36:31.853Z,0.20
2019-02-07T20:38:08.729Z,0.20
2019-02-07T20:39:45.884Z,0.20
2019-02-07T20:41:21.382Z,0.10
2019-02-07T20:42:59.238Z,0.10
2019-02-07T20:44:34.719Z,0.10
2019-02-07T20:46:10.458Z,0.10
2019-02-07T20:47:45.955Z,0.10
2019-02-07T20:49:21.451Z,0.00
2019-02-07T20:50:57.726Z,0.00
2019-02-07T20:52:33.834Z,0.00
2019-02-07T20:54:09.451Z,0.00
2019-02-07T20:55:45.205Z,0.00
2019-02-07T20:57:20.838Z,0.00
2019-02-07T20:58:59.211Z,-0.10
2019-02-07T21:00:39.885Z,0.00
2019-02-07T21:02:16.882Z,0.00
2019-02-07T21:03:52.394Z,-0.10
2019-02-07T21:05:29.815Z,-0.10
2019-02-07T21:07:05.517Z,-0.10
2019-02-07T21:08:41.216Z,-0.10
2019-02-07T21:10:27.371Z,-0.10
2019-02-07T21:12:06.047Z,-0.10
2019-02-07T21:13:41.619Z,-0.10
2019-02-07T21:15:20.093Z,-0.10
2019-02-07T21:16:55.761Z,-0.10
2019-02-07T21:18:31.543Z,-0.10
2019-02-07T21:20:12.027Z,-0.10
2019-02-07T21:21:47.687Z,-0.20
2019-02-07T21:23:23.350Z,-0.20
2019-02-07T21:24:59.244Z,-0.20
2019-02-07T21:26:36.489Z,-0.20
2019-02-07T21:28:12.105Z,-0.20
2019-02-07T21:29:47.810Z,-0.20
2019-02-07T21:31:23.473Z,-0.20
2019-02-07T21:32:59.134Z,-0.20
2019-02-07T21:34:34.783Z,-0.20
2019-02-07T21:36:10.383Z,-0.20
2019-02-07T21:37:45.952Z,-0.20
2019-02-07T21:39:21.488Z,-0.20
2019-02-07T21:40:57.119Z,-0.20
2019-02-07T21:42:32.789Z,-0.20
2019-02-07T21:44:08.542Z,-0.20
2019-02-07T21:45:44.191Z,-0.20
2019-02-07T21:47:19.848Z,-0.30
2019-02-07T21:48:56.974Z,-0.30
2019-02-07T21:50:33.988Z,-0.30
2019-02-07T21:52:11.243Z,-0.30
2019-02-07T21:53:46.928Z,-0.30
2019-02-07T21:55:29.513Z,-0.30
2019-02-07T21:57:05.098Z,-0.30
2019-02-07T21:58:40.737Z,-0.30
2019-02-07T22:00:23.234Z,-0.40
2019-02-07T22:01:59.119Z,-0.40
2019-02-07T22:03:35.734Z,-0.40
2019-02-07T22:05:11.385Z,-0.40
2019-02-07T22:06:47.050Z,-0.40
2019-02-07T22:08:22.562Z,-0.40
2019-02-07T22:09:58.488Z,-0.40
2019-02-07T22:11:35.622Z,-0.40
2019-02-07T22:13:11.366Z,-0.40